createdAt,value
2018-05-15T00:00:07.812Z,15.43
2018-05-15T00:02:09.722Z,15.45
2018-05-15T00:03:04.693Z,15.41
2018-05-15T00:04:55.449Z,15.26
2018-05-15T00:05:55.681Z,15.22
2018-05-15T00:07:48.846Z,15.26
2018-05-15T00:08:48.484Z,15.23
2018-05-15T00:10:42.755Z,15.23
2018-05-15T00:11:42.257Z,15.11
2018-05-15T00:13:35.448Z,15.15
2018-05-15T00:14:35.751Z,15.08
2018-05-15T00:16:29.481Z,15.11
2018-05-15T00:17:28.737Z,15.11
2018-05-15T00:19:22.200Z,15.10
2018-05-15T00:20:22.142Z,14.97
2018-05-15T00:22:17.189Z,15.04
2018-05-15T00:23:15.290Z,15.04
2018-05-15T00:25:10.915Z,15.04
2018-05-15T00:26:09.895Z,15.04
2018-05-15T00:28:03.191Z,14.99
2018-05-15T00:29:03.244Z,14.96
2018-05-15T00:30:55.829Z,14.99
2018-05-15T00:31:55.809Z,14.97
2018-05-15T00:33:49.559Z,14.96
2018-05-15T00:34:50.547Z,14.92
2018-05-15T00:36:43.497Z,14.90
2018-05-15T00:37:43.368Z,14.96
2018-05-15T00:39:44.332Z,14.85
2018-05-15T00:40:39.349Z,14.79
2018-05-15T05:36:22.577Z,19.39
2018-05-15T05:37:22.567Z,19.50
2018-05-15T05:39:16.526Z,19.75
2018-05-15T05:40:16.491Z,19.93
2018-05-15T05:42:14.454Z,20.23
2018-05-15T05:43:21.539Z,20.37
2018-05-15T05:45:07.513Z,20.60
2018-05-15T05:46:07.344Z,20.58
2018-05-15T05:48:00.686Z,20.74
2018-05-15T05:49:00.598Z,20.82
2018-05-15T05:50:54.670Z,21.01
2018-05-15T05:51:54.325Z,21.18
2018-05-15T05:53:47.243Z,21.25
2018-05-15T05:54:47.167Z,21.35
2018-05-15T05:56:40.084Z,21.51
2018-05-15T05:57:40.056Z,21.56
2018-05-15T05:59:33.729Z,21.74
2018-05-15T06:00:33.435Z,21.63
2018-05-15T06:02:26.623Z,21.94
2018-05-15T06:03:26.308Z,21.94
2018-05-15T06:05:19.225Z,21.96
2018-05-15T06:06:19.225Z,22.06
2018-05-15T06:08:12.325Z,22.19
2018-05-15T06:09:12.118Z,22.30
2018-05-15T06:11:05.116Z,22.37
2018-05-15T06:12:05.533Z,22.52
2018-05-15T06:13:59.113Z,22.51
2018-05-15T06:15:00.142Z,22.61
2018-05-15T06:16:51.921Z,22.49
2018-05-15T06:19:05.346Z,22.67
2018-05-15T06:20:04.177Z,22.53
2018-05-15T06:21:57.388Z,22.19
2018-05-15T06:22:57.061Z,21.93
2018-05-15T06:24:50.556Z,21.73
2018-05-15T06:25:50.753Z,21.73
2018-05-15T06:27:43.880Z,22.22
2018-05-15T06:28:43.834Z,22.55
2018-05-15T06:30:37.325Z,22.58
2018-05-15T06:31:36.746Z,22.31
2018-05-15T06:33:29.892Z,22.37
2018-05-15T06:34:29.620Z,22.76
2018-05-15T06:36:22.796Z,22.44
2018-05-15T06:37:22.558Z,22.80
2018-05-15T06:39:15.715Z,23.14
2018-05-15T06:40:15.413Z,23.15
2018-05-15T06:42:09.152Z,23.21
2018-05-15T06:43:08.819Z,23.23
2018-05-15T06:45:02.477Z,23.48
2018-05-15T06:46:02.192Z,23.11
2018-05-15T06:47:55.354Z,23.42
2018-05-15T06:48:55.110Z,23.11
2018-05-15T06:50:48.546Z,22.99
2018-05-15T06:51:48.488Z,23.25
2018-05-15T06:53:41.590Z,23.76
2018-05-15T06:54:41.386Z,23.94
2018-05-15T06:56:34.585Z,24.16
2018-05-15T06:57:34.283Z,24.10
2018-05-15T06:59:27.234Z,23.79
2018-05-15T07:00:27.192Z,23.92
2018-05-15T07:02:20.812Z,23.79
2018-05-15T07:03:20.576Z,23.59
2018-05-15T07:05:13.507Z,23.23
2018-05-15T07:06:13.546Z,23.25
2018-05-15T07:08:06.396Z,23.21
2018-05-15T07:09:06.371Z,23.28
2018-05-15T07:11:00.050Z,23.10
2018-05-15T07:11:59.756Z,23.03
2018-05-15T07:13:52.913Z,22.81
2018-05-15T07:14:52.647Z,23.01
2018-05-15T07:16:45.867Z,23.39
2018-05-15T07:17:45.602Z,23.36
2018-05-15T07:19:38.465Z,23.51
2018-05-15T07:20:38.459Z,23.54
2018-05-15T07:22:31.366Z,23.49
2018-05-15T07:23:31.343Z,23.51
2018-05-15T07:25:24.267Z,23.23
2018-05-15T07:26:24.262Z,23.44
2018-05-15T07:28:17.492Z,23.18
2018-05-15T07:29:17.130Z,23.21
2018-05-15T07:31:10.360Z,23.18
2018-05-15T07:32:10.032Z,23.22
2018-05-15T07:34:02.949Z,23.34
2018-05-15T07:35:02.934Z,23.11
2018-05-15T07:36:56.634Z,23.10
2018-05-15T07:37:56.317Z,23.11
2018-05-15T07:39:49.800Z,23.17
2018-05-15T07:40:49.705Z,23.25
2018-05-15T07:42:42.929Z,23.42
2018-05-15T07:43:42.603Z,23.45
2018-05-15T07:45:35.824Z,23.34
2018-05-15T07:46:35.503Z,23.52
2018-05-15T07:48:29.266Z,23.48
2018-05-15T07:49:28.433Z,23.51
2018-05-15T07:51:21.326Z,23.49
2018-05-15T07:52:21.291Z,23.64
2018-05-15T07:54:14.212Z,23.79
2018-05-15T07:55:14.210Z,23.82
2018-05-15T07:57:07.324Z,23.79
2018-05-15T07:58:07.096Z,23.74
2018-05-15T08:00:00.501Z,23.82
2018-05-15T08:01:00.475Z,23.76
2018-05-15T08:02:53.627Z,23.89
2018-05-15T08:03:53.368Z,24.00
2018-05-15T08:05:47.153Z,24.08
2018-05-15T08:06:46.342Z,24.15
2018-05-15T08:08:39.416Z,24.25
2018-05-15T08:09:39.163Z,24.15
2018-05-15T08:11:32.579Z,24.38
2018-05-15T08:12:32.540Z,24.51
2018-05-15T08:14:25.673Z,24.15
2018-05-15T08:15:25.459Z,24.18
2018-05-15T08:17:19.425Z,24.40
2018-05-15T08:18:18.615Z,24.33
2018-05-15T08:20:12.022Z,24.03
2018-05-15T08:21:12.001Z,24.06
2018-05-15T08:23:05.435Z,24.00
2018-05-15T08:24:05.410Z,23.92
2018-05-15T08:25:58.536Z,24.23
2018-05-15T08:26:58.302Z,24.29
2018-05-15T08:28:51.517Z,24.34
2018-05-15T08:29:51.207Z,24.04
2018-05-15T08:31:44.392Z,24.26
2018-05-15T08:32:44.112Z,24.13
2018-05-15T08:34:37.000Z,24.11
2018-05-15T08:35:37.072Z,24.00
2018-05-15T08:37:30.735Z,23.88
2018-05-15T08:38:30.377Z,23.94
2018-05-15T08:40:23.308Z,24.00
2018-05-15T08:41:23.560Z,23.96
2018-05-15T08:43:16.178Z,24.06
2018-05-15T08:44:16.157Z,24.01
2018-05-15T08:46:09.085Z,24.19
2018-05-15T08:47:09.059Z,24.04
2018-05-15T08:49:02.535Z,23.85
2018-05-15T08:50:01.964Z,24.01
2018-05-15T08:51:55.430Z,23.76
2018-05-15T08:52:54.837Z,23.76
2018-05-15T08:54:48.071Z,23.56
2018-05-15T08:55:47.762Z,23.48
2018-05-15T08:57:40.880Z,23.37
2018-05-15T08:58:40.649Z,23.34
2018-05-15T09:00:33.783Z,23.21
2018-05-15T09:01:33.523Z,23.10
2018-05-15T09:03:26.907Z,23.07
2018-05-15T09:04:26.901Z,23.10
2018-05-15T09:06:20.053Z,23.10
2018-05-15T09:07:19.789Z,23.13
2018-05-15T09:09:12.692Z,23.06
2018-05-15T09:10:12.670Z,23.07
2018-05-15T09:12:06.079Z,23.17
2018-05-15T09:13:06.077Z,23.14
2018-05-15T09:14:59.556Z,22.96
2018-05-15T09:15:59.027Z,22.99
2018-05-15T09:17:52.605Z,22.85
2018-05-15T09:18:52.331Z,22.77
2018-05-15T09:20:45.519Z,22.83
2018-05-15T09:21:45.227Z,22.85
2018-05-15T09:23:38.143Z,22.66
2018-05-15T09:24:38.093Z,22.71
2018-05-15T09:26:31.352Z,22.49
2018-05-15T09:27:31.249Z,22.55
2018-05-15T09:29:23.938Z,22.71
2018-05-15T09:30:23.899Z,22.59
2018-05-15T09:32:16.801Z,22.64
2018-05-15T09:33:16.762Z,22.62
2018-05-15T09:35:09.920Z,22.64
2018-05-15T09:36:09.677Z,22.71
2018-05-15T09:38:03.372Z,22.77
2018-05-15T09:39:03.041Z,22.74
2018-05-15T09:40:56.441Z,22.76
2018-05-15T09:41:56.422Z,22.89
2018-05-15T09:43:49.812Z,22.92
2018-05-15T09:44:49.787Z,22.91
2018-05-15T09:46:42.966Z,22.91
2018-05-15T09:47:42.678Z,22.78
2018-05-15T09:49:36.286Z,22.95
2018-05-15T09:50:36.059Z,23.06
2018-05-15T09:52:29.765Z,23.04
2018-05-15T09:53:28.956Z,23.15
2018-05-15T09:55:22.617Z,23.23
2018-05-15T09:56:22.317Z,23.44
2018-05-15T09:58:15.291Z,23.37
2018-05-15T09:59:15.210Z,23.44
2018-05-15T10:01:08.382Z,23.42
2018-05-15T10:02:08.093Z,23.44
2018-05-15T10:04:01.266Z,23.39
2018-05-15T10:05:01.006Z,23.39
2018-05-15T10:06:53.879Z,23.39
2018-05-15T10:07:53.898Z,23.46
2018-05-15T10:09:46.764Z,23.41
2018-05-15T10:10:46.761Z,23.46
2018-05-15T10:12:40.382Z,23.45
2018-05-15T10:13:40.130Z,23.44
2018-05-15T10:15:33.039Z,23.41
2018-05-15T10:16:33.012Z,23.36
2018-05-15T10:18:26.155Z,23.33
2018-05-15T10:19:25.910Z,23.42
2018-05-15T10:21:19.300Z,23.34
2018-05-15T10:22:19.282Z,23.44
2018-05-15T10:24:12.950Z,23.45
2018-05-15T10:25:12.688Z,23.49
2018-05-15T10:27:05.858Z,23.49
2018-05-15T10:28:05.574Z,23.64
2018-05-15T10:29:58.777Z,23.59
2018-05-15T10:30:58.437Z,23.73
2018-05-15T10:32:51.608Z,23.64
2018-05-15T10:33:51.327Z,23.67
2018-05-15T10:35:44.503Z,23.49
2018-05-15T10:36:44.235Z,23.55
2018-05-15T10:38:37.440Z,23.55
2018-05-15T10:39:37.089Z,23.63
2018-05-15T10:41:30.308Z,23.66
2018-05-15T10:42:29.988Z,23.74
2018-05-15T10:44:23.622Z,23.63
2018-05-15T10:45:23.354Z,23.52
2018-05-15T10:47:16.278Z,23.54
2018-05-15T10:48:16.248Z,23.48
2018-05-15T10:50:09.939Z,23.64
2018-05-15T10:51:09.643Z,23.63
2018-05-15T10:53:02.819Z,23.63
2018-05-15T10:54:02.512Z,23.66
2018-05-15T10:55:55.935Z,23.61
2018-05-15T10:56:55.900Z,23.60
2018-05-15T10:58:48.826Z,23.73
2018-05-15T10:59:48.805Z,23.79
2018-05-15T11:01:41.987Z,23.71
2018-05-15T11:02:41.665Z,23.76
2018-05-15T11:04:35.369Z,23.78
2018-05-15T11:05:35.058Z,23.74
2018-05-15T11:07:28.212Z,23.63
2018-05-15T11:08:27.960Z,23.55
2018-05-15T11:10:20.918Z,23.46
2018-05-15T11:11:20.816Z,23.56
2018-05-15T11:13:14.484Z,23.41
2018-05-15T11:14:14.222Z,23.39
2018-05-15T11:16:07.139Z,23.29
2018-05-15T11:17:07.085Z,23.41
2018-05-15T11:19:00.503Z,23.21
2018-05-15T11:20:00.461Z,23.23
2018-05-15T11:21:53.384Z,23.39
2018-05-15T11:22:53.357Z,23.42
2018-05-15T11:24:46.256Z,23.28
2018-05-15T11:25:46.243Z,23.23
2018-05-15T11:27:39.140Z,23.17
2018-05-15T11:28:39.117Z,23.25
2018-05-15T11:30:32.624Z,23.18
2018-05-15T11:31:32.504Z,23.33
2018-05-15T11:33:25.653Z,23.55
2018-05-15T11:34:25.405Z,23.46
2018-05-15T11:36:18.584Z,23.51
2018-05-15T11:37:18.293Z,23.52
2018-05-15T11:39:11.460Z,23.79
2018-05-15T11:40:11.164Z,23.81
2018-05-15T11:42:04.076Z,23.96
2018-05-15T11:43:04.040Z,23.88
2018-05-15T11:44:57.657Z,23.76
2018-05-15T11:45:57.431Z,23.78
2018-05-15T11:47:50.953Z,23.49
2018-05-15T11:48:50.809Z,23.52
2018-05-15T11:50:44.316Z,23.52
2018-05-15T11:51:43.985Z,23.70
2018-05-15T11:53:36.864Z,23.79
2018-05-15T11:54:36.582Z,23.84
2018-05-15T11:56:29.504Z,23.98
2018-05-15T11:57:29.472Z,23.92
2018-05-15T11:59:23.054Z,24.11
2018-05-15T12:00:22.831Z,24.25
2018-05-15T12:02:16.005Z,24.51
2018-05-15T12:03:15.726Z,24.65
2018-05-15T12:05:09.688Z,24.86
2018-05-15T12:06:08.612Z,24.86
2018-05-15T12:08:02.332Z,24.81
2018-05-15T12:09:02.017Z,24.58
2018-05-15T12:10:55.160Z,24.59
2018-05-15T12:11:54.897Z,24.45
2018-05-15T12:13:48.052Z,24.48
2018-05-15T12:14:47.761Z,24.52
2018-05-15T12:16:40.890Z,24.45
2018-05-15T12:17:40.654Z,24.53
2018-05-15T12:19:33.817Z,24.56
2018-05-15T12:20:33.550Z,24.55
2018-05-15T12:22:26.671Z,24.58
2018-05-15T12:23:26.457Z,24.55
2018-05-15T12:25:19.563Z,24.45
2018-05-15T12:26:19.329Z,24.48
2018-05-15T12:28:12.729Z,24.56
2018-05-15T12:29:12.695Z,24.58
2018-05-15T12:31:06.385Z,24.65
2018-05-15T12:32:06.086Z,24.53
2018-05-15T12:33:58.986Z,24.52
2018-05-15T12:34:58.985Z,24.45
2018-05-15T12:36:51.892Z,24.33
2018-05-15T12:37:51.865Z,24.33
2018-05-15T12:39:45.041Z,24.44
2018-05-15T12:40:44.759Z,24.34
2018-05-15T12:42:37.907Z,24.51
2018-05-15T12:43:37.640Z,24.55
2018-05-15T12:45:30.544Z,24.55
2018-05-15T12:46:30.522Z,24.55
2018-05-15T12:48:23.432Z,24.58
2018-05-15T12:49:23.409Z,24.59
2018-05-15T12:51:16.561Z,24.62
2018-05-15T12:52:16.563Z,24.74
2018-05-15T12:54:10.025Z,24.91
2018-05-15T12:55:09.681Z,25.00
2018-05-15T12:57:02.912Z,25.12
2018-05-15T12:58:02.802Z,25.23
2018-05-15T12:59:55.847Z,25.28
2018-05-15T13:00:55.474Z,25.33
2018-05-15T13:02:48.985Z,25.28
2018-05-15T13:03:48.342Z,25.37
2018-05-15T13:05:41.558Z,25.31
2018-05-15T13:06:41.231Z,25.27
2018-05-15T13:08:34.831Z,25.26
2018-05-15T13:09:34.612Z,25.19
2018-05-15T13:11:28.064Z,25.08
2018-05-15T13:12:28.007Z,25.00
2018-05-15T13:14:21.596Z,24.97
2018-05-15T13:15:21.394Z,24.86
2018-05-15T13:17:14.483Z,24.85
2018-05-15T13:18:14.288Z,24.84
2018-05-15T13:20:07.177Z,24.76
2018-05-15T13:21:07.161Z,24.70
2018-05-15T13:23:00.069Z,24.65
2018-05-15T13:24:00.050Z,24.62
2018-05-15T13:25:52.953Z,24.58
2018-05-15T13:26:52.936Z,24.62
2018-05-15T13:28:45.969Z,24.41
2018-05-15T13:29:45.833Z,24.53
2018-05-15T13:31:38.728Z,24.43
2018-05-15T13:32:38.713Z,24.37
2018-05-15T13:34:32.248Z,24.41
2018-05-15T13:35:32.110Z,24.43
2018-05-15T13:37:24.994Z,24.45
2018-05-15T13:38:24.984Z,24.43
2018-05-15T13:40:17.892Z,24.33
2018-05-15T13:41:17.862Z,24.29
2018-05-15T13:43:11.276Z,24.23
2018-05-15T13:44:11.249Z,24.18
2018-05-15T13:46:04.155Z,24.26
2018-05-15T13:47:04.151Z,24.29
2018-05-15T13:48:58.113Z,24.36
2018-05-15T13:49:57.543Z,24.38
2018-05-15T13:51:51.506Z,24.34
2018-05-15T13:52:50.902Z,24.22
2018-05-15T13:54:44.303Z,24.23
2018-05-15T13:55:44.334Z,24.25
2018-05-15T13:57:37.200Z,24.15
2018-05-15T13:58:37.195Z,24.13
2018-05-15T14:00:30.742Z,24.04
2018-05-15T14:01:30.573Z,24.04
2018-05-15T14:03:23.681Z,24.03
2018-05-15T14:04:23.472Z,24.11
2018-05-15T14:06:16.531Z,24.13
2018-05-15T14:07:16.336Z,24.19
2018-05-15T14:09:09.339Z,24.29
2018-05-15T14:10:09.225Z,24.33
2018-05-15T14:12:02.622Z,24.34
2018-05-15T14:13:02.602Z,24.26
2018-05-15T14:14:55.532Z,24.38
2018-05-15T14:15:55.496Z,24.23
2018-05-15T14:17:48.391Z,24.29
2018-05-15T14:18:48.393Z,24.34
2018-05-15T14:20:41.284Z,24.31
2018-05-15T14:21:41.278Z,24.33
2018-05-15T14:23:34.344Z,24.36
2018-05-15T14:24:34.230Z,24.51
2018-05-15T14:26:27.632Z,24.45
2018-05-15T14:27:27.061Z,24.40
2018-05-15T14:29:20.496Z,24.44
2018-05-15T14:30:20.423Z,24.51
2018-05-15T14:32:13.481Z,24.47
2018-05-15T14:33:13.317Z,24.60
2018-05-15T14:35:06.210Z,24.79
2018-05-15T14:36:06.197Z,24.70
2018-05-15T14:37:59.094Z,24.86
2018-05-15T14:38:59.101Z,24.91
2018-05-15T14:40:53.476Z,24.86
2018-05-15T14:41:53.464Z,24.94
2018-05-15T14:43:46.449Z,25.09
2018-05-15T14:44:46.347Z,25.15
2018-05-15T14:46:39.753Z,25.31
2018-05-15T14:47:39.725Z,25.27
2018-05-15T14:49:32.864Z,25.15
2018-05-15T14:50:32.640Z,25.06
2018-05-15T14:52:26.025Z,24.93
2018-05-15T14:53:26.034Z,24.99
2018-05-15T14:55:19.204Z,24.94
2018-05-15T14:56:19.136Z,24.86
2018-05-15T14:58:13.627Z,24.81
2018-05-15T14:59:12.289Z,24.74
2018-05-15T15:01:06.978Z,24.60
2018-05-15T15:02:05.161Z,24.51
2018-05-15T15:03:58.071Z,24.47
2018-05-15T15:04:58.060Z,24.56
2018-05-15T15:06:51.416Z,24.44
2018-05-15T15:07:50.931Z,24.44
2018-05-15T15:09:43.862Z,24.33
2018-05-15T15:10:43.820Z,24.31
2018-05-15T15:12:36.987Z,24.10
2018-05-15T15:13:36.725Z,24.04
2018-05-15T15:15:30.202Z,24.06
2018-05-15T15:16:30.377Z,23.97
2018-05-15T15:18:23.362Z,24.10
2018-05-15T15:19:22.973Z,24.04
2018-05-15T15:21:16.643Z,24.18
2018-05-15T15:22:16.349Z,24.26
2018-05-15T15:24:09.529Z,24.41
2018-05-15T15:25:09.258Z,24.43
2018-05-15T15:27:02.217Z,24.45
2018-05-15T15:28:02.146Z,24.45
2018-05-15T15:29:55.089Z,24.44
2018-05-15T15:30:55.020Z,24.52
2018-05-15T15:32:48.724Z,24.47
2018-05-15T15:33:48.444Z,24.63
2018-05-15T15:35:41.593Z,24.56
2018-05-15T15:36:41.306Z,24.60
2018-05-15T15:38:34.935Z,24.55
2018-05-15T15:39:34.678Z,24.63
2018-05-15T15:41:28.379Z,24.55
2018-05-15T15:42:27.629Z,24.58
2018-05-15T15:44:22.267Z,24.75
2018-05-15T15:45:22.263Z,24.71
2018-05-15T15:47:15.360Z,24.75
2018-05-15T15:48:15.340Z,24.70
2018-05-15T15:50:08.243Z,24.78
2018-05-15T15:51:08.244Z,24.78
2018-05-15T15:53:01.158Z,24.84
2018-05-15T15:54:01.140Z,24.85
2018-05-15T15:55:54.801Z,24.85
2018-05-15T15:56:54.513Z,24.84
2018-05-15T15:58:47.421Z,24.79
2018-05-15T15:59:47.417Z,24.79
2018-05-15T16:01:41.209Z,24.94
2018-05-15T16:02:40.767Z,24.99
2018-05-15T16:04:34.035Z,25.01
2018-05-15T16:05:33.676Z,25.15
2018-05-15T16:07:27.381Z,25.15
2018-05-15T16:08:26.590Z,25.18
2018-05-15T16:10:19.745Z,25.18
2018-05-15T16:11:19.499Z,25.12
2018-05-15T16:13:12.758Z,25.11
2018-05-15T16:14:12.329Z,24.97
2018-05-15T16:16:05.548Z,24.89
2018-05-15T16:17:05.277Z,24.91
2018-05-15T16:18:58.161Z,24.71
2018-05-15T16:19:58.160Z,24.74
2018-05-15T16:21:51.861Z,24.75
2018-05-15T16:22:51.563Z,24.74
2018-05-15T16:24:44.500Z,24.63
2018-05-15T16:25:44.732Z,24.51
2018-05-15T16:27:37.319Z,24.62
2018-05-15T16:28:37.328Z,24.51
2018-05-15T16:30:30.479Z,24.41
2018-05-15T16:31:30.845Z,24.29
2018-05-15T16:33:23.111Z,24.28
2018-05-15T16:34:23.421Z,24.25
2018-05-15T16:36:16.794Z,24.19
2018-05-15T16:37:16.444Z,24.19
2018-05-15T16:39:09.656Z,24.23
2018-05-15T16:40:09.578Z,24.22
2018-05-15T16:42:02.732Z,24.26
2018-05-15T16:43:02.978Z,24.43
2018-05-15T16:44:55.611Z,24.43
2018-05-15T16:45:55.607Z,24.51
2018-05-15T16:47:49.316Z,24.38
2018-05-15T16:48:48.974Z,24.52
2018-05-15T16:50:42.096Z,24.47
2018-05-15T16:51:41.868Z,24.38
2018-05-15T16:53:35.013Z,24.43
2018-05-15T16:54:34.773Z,24.41
2018-05-15T16:56:28.023Z,24.37
2018-05-15T16:57:27.650Z,24.45
2018-05-15T16:59:21.854Z,24.48
2018-05-15T17:00:21.570Z,24.47
2018-05-15T17:02:14.497Z,24.43
2018-05-15T17:03:14.469Z,24.44
2018-05-15T17:05:07.618Z,24.44
2018-05-15T17:06:07.346Z,24.36
2018-05-15T17:08:01.070Z,24.31
2018-05-15T17:09:00.739Z,24.26
2018-05-15T17:10:54.435Z,24.25
2018-05-15T17:11:54.118Z,24.22
2018-05-15T17:13:47.588Z,24.37
2018-05-15T17:14:47.497Z,24.10
2018-05-15T17:16:40.668Z,24.16
2018-05-15T17:17:40.603Z,24.16
2018-05-15T17:19:33.469Z,24.07
2018-05-15T17:20:33.297Z,24.10
2018-05-15T17:22:27.014Z,24.13
2018-05-15T17:23:26.423Z,24.16
2018-05-15T17:25:19.857Z,24.04
2018-05-15T17:26:19.818Z,23.94
2018-05-15T17:28:13.251Z,23.92
2018-05-15T17:29:13.178Z,24.06
2018-05-15T17:31:06.141Z,24.00
2018-05-15T17:32:05.803Z,24.03
2018-05-15T17:33:59.273Z,24.00
2018-05-15T17:34:59.423Z,23.89
2018-05-15T17:36:52.783Z,23.88
2018-05-15T17:37:52.536Z,23.94
2018-05-15T17:39:46.175Z,23.82
2018-05-15T17:40:45.962Z,23.79
2018-05-15T17:42:38.875Z,23.76
2018-05-15T17:43:38.827Z,23.70
2018-05-15T17:45:31.770Z,23.79
2018-05-15T17:46:31.682Z,23.73
2018-05-15T17:48:24.811Z,23.70
2018-05-15T17:49:24.576Z,23.66
2018-05-15T17:51:17.704Z,23.59
2018-05-15T17:52:17.468Z,23.66
2018-05-15T17:54:10.946Z,23.49
2018-05-15T17:55:10.357Z,23.55
2018-05-15T17:57:03.932Z,23.51
2018-05-15T17:58:03.719Z,23.45
2018-05-15T17:59:57.128Z,23.46
2018-05-15T18:00:57.089Z,23.42
2018-05-15T18:02:50.077Z,23.37
2018-05-15T18:03:49.972Z,23.39
2018-05-15T18:05:43.154Z,23.44
2018-05-15T18:06:42.859Z,23.39
2018-05-15T18:08:36.101Z,23.31
2018-05-15T18:09:36.056Z,23.23
2018-05-15T18:11:28.922Z,23.31
2018-05-15T18:12:28.967Z,23.18
2018-05-15T18:14:22.638Z,23.17
2018-05-15T18:15:22.359Z,23.08
2018-05-15T18:17:15.462Z,22.99
2018-05-15T18:18:15.158Z,22.98
2018-05-15T18:20:08.160Z,22.92
2018-05-15T18:21:08.366Z,22.91
2018-05-15T18:23:01.830Z,22.91
2018-05-15T18:24:01.853Z,22.81
2018-05-15T18:25:55.219Z,22.85
2018-05-15T18:26:57.106Z,22.76
2018-05-15T18:28:48.527Z,22.77
2018-05-15T18:29:48.216Z,22.66
2018-05-15T18:31:41.935Z,22.70
2018-05-15T18:32:41.883Z,22.73
2018-05-15T18:34:34.921Z,22.61
2018-05-15T18:35:34.500Z,22.61
2018-05-15T18:37:27.908Z,22.53
2018-05-15T18:38:28.176Z,22.52
2018-05-15T18:40:21.558Z,22.43
2018-05-15T18:41:21.915Z,22.37
2018-05-15T18:43:14.481Z,22.37
2018-05-15T18:44:14.402Z,22.37
2018-05-15T18:46:07.066Z,22.30
2018-05-15T18:47:07.034Z,22.33
2018-05-15T18:48:59.929Z,22.30
2018-05-15T18:49:59.907Z,22.30
2018-05-15T18:51:52.809Z,22.27
2018-05-15T18:52:52.815Z,22.33
2018-05-15T18:54:46.510Z,22.23
2018-05-15T18:55:46.175Z,22.18
2018-05-15T18:57:39.559Z,22.19
2018-05-15T18:58:39.536Z,22.18
2018-05-15T19:00:33.198Z,22.15
2018-05-15T19:01:32.924Z,22.19
2018-05-15T19:03:26.166Z,22.18
2018-05-15T19:04:25.793Z,22.07
2018-05-15T19:06:19.526Z,22.09
2018-05-15T19:07:19.454Z,21.96
2018-05-15T19:09:12.349Z,21.94
2018-05-15T19:10:12.064Z,21.90
2018-05-15T19:12:05.228Z,21.91
2018-05-15T19:13:05.248Z,21.85
2018-05-15T19:14:59.571Z,21.77
2018-05-15T19:15:59.310Z,21.77
2018-05-15T19:17:53.051Z,21.74
2018-05-15T19:18:52.196Z,21.66
2018-05-15T19:20:45.845Z,21.66
2018-05-15T19:21:45.574Z,21.67
2018-05-15T19:23:38.547Z,21.69
2018-05-15T19:24:38.732Z,21.71
2018-05-15T19:26:31.857Z,21.65
2018-05-15T19:27:32.118Z,21.66
2018-05-15T19:29:24.821Z,21.59
2018-05-15T19:30:24.960Z,21.51
2018-05-15T19:32:18.387Z,21.55
2018-05-15T19:33:18.127Z,21.48
2018-05-15T19:35:12.061Z,21.41
2018-05-15T19:36:11.430Z,21.53
2018-05-15T19:38:04.360Z,21.44
2018-05-15T19:39:04.319Z,21.45
2018-05-15T19:40:58.150Z,21.37
2018-05-15T19:41:57.194Z,21.34
2018-05-15T19:43:50.397Z,21.25
2018-05-15T19:44:50.378Z,21.22
2018-05-15T19:46:43.322Z,21.11
2018-05-15T19:47:43.273Z,21.14
2018-05-15T19:49:36.736Z,21.07
2018-05-15T19:50:36.449Z,21.05
2018-05-15T19:52:31.359Z,21.00
2018-05-15T19:53:31.193Z,20.93
2018-05-15T19:55:24.991Z,20.92
2018-05-15T19:56:24.086Z,20.90
2018-05-15T19:58:16.981Z,20.90
2018-05-15T19:59:16.594Z,20.85
2018-05-15T20:01:11.278Z,20.88
2018-05-15T20:02:10.197Z,20.82
2018-05-15T20:04:04.175Z,20.70
2018-05-15T20:05:03.197Z,20.70
2018-05-15T20:06:57.621Z,20.58
2018-05-15T20:07:57.549Z,20.61
2018-05-15T20:09:50.790Z,20.49
2018-05-15T20:10:50.342Z,20.55
2018-05-15T20:12:46.268Z,20.48
2018-05-15T20:13:46.252Z,20.39
2018-05-15T20:15:40.728Z,20.46
2018-05-15T20:16:39.428Z,20.30
2018-05-15T20:18:33.102Z,20.27
2018-05-15T20:19:33.079Z,20.32
2018-05-15T20:21:26.967Z,20.25
2018-05-15T20:22:26.381Z,20.27
2018-05-15T20:24:19.872Z,20.22
2018-05-15T20:25:19.830Z,20.22
2018-05-15T20:27:13.647Z,20.09
2018-05-15T20:28:12.991Z,19.99
2018-05-15T20:30:07.850Z,19.94
2018-05-15T20:31:07.804Z,19.90
2018-05-15T20:33:00.302Z,19.89
2018-05-15T20:34:00.242Z,19.82
2018-05-15T20:35:53.065Z,19.78
2018-05-15T20:36:53.637Z,19.77
2018-05-15T20:38:47.413Z,19.74
2018-05-15T20:39:46.970Z,19.67
2018-05-15T20:41:41.021Z,19.59
2018-05-15T20:42:40.412Z,19.57
2018-05-15T20:44:33.282Z,19.44
2018-05-15T20:45:33.770Z,19.44
2018-05-15T20:47:26.677Z,19.42
2018-05-15T20:48:26.583Z,19.34
2018-05-15T20:50:20.091Z,19.32
2018-05-15T20:51:20.451Z,19.31
2018-05-15T20:53:13.366Z,19.24
2018-05-15T20:54:13.033Z,19.22
2018-05-15T20:56:07.315Z,19.05
2018-05-15T20:57:06.756Z,19.05
2018-05-15T20:59:00.218Z,19.08
2018-05-15T21:00:00.128Z,19.05
2018-05-15T21:01:54.028Z,19.12
2018-05-15T21:02:53.482Z,18.96
2018-05-15T21:04:47.936Z,18.97
2018-05-15T21:05:46.895Z,18.88
2018-05-15T21:07:39.437Z,18.86
2018-05-15T21:08:39.080Z,18.85
2018-05-15T21:10:33.424Z,18.86
2018-05-15T21:11:33.343Z,18.75
2018-05-15T21:13:26.759Z,18.76
2018-05-15T21:14:26.160Z,18.68
2018-05-15T21:16:20.649Z,18.68
2018-05-15T21:17:19.273Z,18.70
2018-05-15T21:19:15.028Z,18.61
2018-05-15T21:20:13.508Z,18.56
2018-05-15T21:22:07.437Z,18.56
2018-05-15T21:23:06.868Z,18.57
2018-05-15T21:25:00.771Z,18.52
2018-05-15T21:26:00.443Z,18.45
2018-05-15T21:27:53.673Z,18.51
2018-05-15T21:28:53.643Z,18.46
2018-05-15T21:30:47.052Z,18.43
2018-05-15T21:31:47.025Z,18.36
2018-05-15T21:33:40.404Z,18.36
2018-05-15T21:34:40.087Z,18.31
2018-05-15T21:36:33.732Z,18.24
2018-05-15T21:37:34.225Z,18.28
2018-05-15T21:39:27.696Z,18.31
2018-05-15T21:40:27.649Z,18.21
2018-05-15T21:42:21.594Z,18.11
2018-05-15T21:43:20.431Z,18.17
2018-05-15T21:45:13.989Z,18.13
2018-05-15T21:46:14.417Z,18.06
2018-05-15T21:48:07.406Z,18.08
2018-05-15T21:49:06.838Z,18.02
2018-05-15T21:51:01.725Z,18.08
2018-05-15T21:52:00.244Z,18.15
2018-05-15T21:53:54.174Z,18.05
2018-05-15T21:54:54.593Z,18.09
2018-05-15T21:56:48.448Z,18.03
2018-05-15T21:57:47.029Z,17.96
2018-05-15T21:59:42.978Z,18.02
2018-05-15T22:00:42.871Z,17.99
2018-05-15T22:02:35.978Z,17.99
2018-05-15T22:03:35.143Z,17.97
2018-05-15T22:05:28.768Z,18.02
2018-05-15T22:06:28.745Z,17.99
2018-05-15T22:08:22.141Z,17.99
2018-05-15T22:09:22.660Z,18.11
2018-05-15T22:11:15.820Z,18.09
2018-05-15T22:12:15.499Z,18.12
2018-05-15T22:14:08.914Z,18.09
2018-05-15T22:15:08.499Z,18.08
2018-05-15T22:17:02.293Z,18.11
2018-05-15T22:18:02.273Z,18.09
2018-05-15T22:19:56.173Z,18.23
2018-05-15T22:20:55.289Z,18.26
2018-05-15T22:22:49.044Z,18.20
2018-05-15T22:23:48.625Z,18.26
2018-05-15T22:25:42.397Z,18.31
2018-05-15T22:26:42.370Z,18.33
2018-05-15T22:28:35.853Z,18.33
2018-05-15T22:29:37.192Z,18.34
2018-05-15T22:31:29.717Z,18.48
2018-05-15T22:32:29.547Z,18.39
2018-05-15T22:34:22.997Z,18.38
2018-05-15T22:35:22.982Z,18.46
2018-05-15T22:37:16.353Z,18.49
2018-05-15T22:38:15.844Z,18.52
2018-05-15T22:40:09.079Z,18.56
2018-05-15T22:41:10.708Z,18.58
2018-05-15T22:43:01.961Z,18.57
2018-05-15T22:44:02.017Z,18.52
2018-05-15T22:45:55.377Z,18.56
2018-05-15T22:46:56.394Z,18.52
2018-05-15T22:48:50.421Z,18.49
2018-05-15T22:49:49.738Z,18.54
2018-05-15T22:51:43.071Z,18.60
2018-05-15T22:52:42.126Z,18.52
2018-05-15T22:54:35.578Z,18.54
2018-05-15T22:55:35.971Z,18.56
2018-05-15T22:57:30.513Z,18.51
2018-05-15T22:58:28.882Z,18.51
2018-05-15T23:00:23.342Z,18.51
2018-05-15T23:01:22.823Z,18.38
2018-05-15T23:03:15.718Z,18.45
2018-05-15T23:04:15.653Z,18.43
2018-05-15T23:06:10.020Z,18.54
2018-05-15T23:07:08.771Z,18.57
2018-05-15T23:09:03.013Z,18.58
2018-05-15T23:10:03.857Z,18.57
2018-05-15T23:11:56.871Z,18.52
2018-05-15T23:12:57.280Z,18.52
2018-05-15T23:14:50.798Z,18.56
2018-05-15T23:15:49.790Z,18.52
2018-05-15T23:17:45.094Z,18.52
2018-05-15T23:18:44.058Z,18.58
2018-05-15T23:20:36.924Z,18.57
2018-05-15T23:21:36.945Z,18.61
2018-05-15T23:23:30.394Z,18.57
2018-05-15T23:24:28.749Z,18.56
2018-05-15T23:26:23.364Z,18.54
2018-05-15T23:27:23.378Z,18.52
2018-05-15T23:29:16.318Z,18.61